createdAt,value
2022-12-24T00:00:41.353Z,96479.55
2022-12-24T00:03:23.748Z,96468.33
2022-12-24T00:05:55.236Z,96458.35
2022-12-24T00:08:26.384Z,96457.16
2022-12-24T00:10:57.647Z,96457.33
2022-12-24T00:13:27.328Z,96451.45
2022-12-24T00:15:58.297Z,96439.13
2022-12-24T00:18:29.717Z,96484.02
2022-12-24T00:21:01.932Z,96474.23
2022-12-24T00:23:32.975Z,96462.02
2022-12-24T00:26:02.797Z,96451.73
2022-12-24T00:28:34.130Z,96449.52
2022-12-24T00:31:10.430Z,96456.08
2022-12-24T00:33:41.557Z,96472.48
2022-12-24T00:36:12.793Z,96470.16
2022-12-24T00:38:42.176Z,96449.77
2022-12-24T00:41:25.811Z,96474.33
2022-12-24T00:43:59.317Z,96482.73
2022-12-24T00:46:31.988Z,96469.74
2022-12-24T00:49:03.465Z,96464.42
2022-12-24T00:51:35.550Z,96463.32
2022-12-24T00:54:08.050Z,96466.52
2022-12-24T00:56:39.242Z,96472.20
2022-12-24T00:59:10.552Z,96470.84
2022-12-24T01:01:41.703Z,96475.55
2022-12-24T01:04:30.654Z,96475.77
2022-12-24T01:07:01.508Z,96470.27
2022-12-24T01:09:33.000Z,96471.85
2022-12-24T01:12:04.551Z,96474.39
2022-12-24T01:14:35.730Z,96477.64
2022-12-24T01:17:06.853Z,96479.50
2022-12-24T01:19:37.997Z,96480.73
2022-12-24T01:22:07.490Z,96474.60
2022-12-24T01:24:38.430Z,96476.64
2022-12-24T01:27:07.950Z,96469.73
2022-12-24T01:29:39.253Z,96480.31
2022-12-24T01:32:10.262Z,96488.42
2022-12-24T01:34:41.573Z,96492.46
2022-12-24T01:37:11.002Z,96501.55
2022-12-24T01:39:42.014Z,96502.83
2022-12-24T01:42:39.721Z,96507.02
2022-12-24T01:45:46.633Z,96507.42
2022-12-24T01:48:35.452Z,96510.27
2022-12-24T01:51:13.080Z,96510.63
2022-12-24T01:53:46.433Z,96520.38
2022-12-24T01:56:18.016Z,96528.77
2022-12-24T01:58:54.084Z,96533.16
2022-12-24T02:01:25.609Z,96543.02
2022-12-24T02:03:56.696Z,96552.51
2022-12-24T02:06:26.495Z,96557.96
2022-12-24T02:08:57.976Z,96561.62
2022-12-24T02:11:28.918Z,96567.39
2022-12-24T02:14:03.161Z,96573.23
2022-12-24T02:16:46.511Z,96564.20
2022-12-24T02:19:41.715Z,96570.04
2022-12-24T02:22:16.717Z,96572.12
2022-12-24T02:25:21.125Z,96566.05
2022-12-24T02:27:59.102Z,96572.27
2022-12-24T02:30:35.363Z,96574.43
2022-12-24T02:33:19.315Z,96570.42
2022-12-24T02:35:55.458Z,96573.77
2022-12-24T02:38:30.298Z,96576.73
2022-12-24T02:41:07.094Z,96578.63
2022-12-24T02:43:43.510Z,96578.72
2022-12-24T02:46:18.849Z,96579.45
2022-12-24T02:48:50.854Z,96579.86
2022-12-24T02:51:25.531Z,96577.74
2022-12-24T02:53:59.586Z,96581.67
2022-12-24T02:56:48.809Z,96582.52
2022-12-24T02:59:43.681Z,96583.08
2022-12-24T03:02:26.608Z,96581.83
2022-12-24T03:05:04.302Z,96580.47
2022-12-24T03:07:39.910Z,96583.53
2022-12-24T03:10:20.914Z,96583.84
2022-12-24T03:12:56.065Z,96584.68
2022-12-24T03:15:31.163Z,96590.48
2022-12-24T03:18:04.548Z,96590.26
2022-12-24T03:20:39.784Z,96600.23
2022-12-24T03:23:11.161Z,96599.52
2022-12-24T03:25:42.372Z,96595.71
2022-12-24T03:28:16.403Z,96597.91
2022-12-24T03:30:49.673Z,96606.37
2022-12-24T03:33:21.295Z,96605.61
2022-12-24T03:35:52.602Z,96612.75
2022-12-24T03:38:22.139Z,96609.54
2022-12-24T03:40:53.521Z,96613.54
2022-12-24T03:43:24.693Z,96623.40
2022-12-24T03:45:55.934Z,96629.52
2022-12-24T03:48:32.546Z,96632.14
2022-12-24T03:51:04.101Z,96636.10
2022-12-24T03:53:33.644Z,96645.55
2022-12-24T03:56:04.709Z,96646.94
2022-12-24T03:58:35.958Z,96646.02
2022-12-24T04:01:05.846Z,96645.80
2022-12-24T04:03:36.945Z,96637.55
2022-12-24T04:06:10.990Z,96640.20
2022-12-24T04:08:42.538Z,96633.52
2022-12-24T04:11:15.302Z,96637.00
2022-12-24T04:13:46.700Z,96641.25
2022-12-24T04:16:18.643Z,96640.16
2022-12-24T04:18:50.126Z,96649.29
2022-12-24T04:21:21.372Z,96654.73
2022-12-24T04:23:50.695Z,96657.21
2022-12-24T04:26:22.006Z,96659.70
2022-12-24T04:28:51.457Z,96662.41
2022-12-24T04:31:22.509Z,96666.48
2022-12-24T04:33:54.504Z,96666.06
2022-12-24T04:36:25.625Z,96674.19
2022-12-24T04:38:54.995Z,96671.36
2022-12-24T04:41:26.921Z,96671.69
2022-12-24T04:43:58.387Z,96666.33
2022-12-24T04:46:31.603Z,96666.01
2022-12-24T04:49:02.841Z,96669.19
2022-12-24T04:51:32.216Z,96675.64
2022-12-24T04:54:03.795Z,96673.59
2022-12-24T04:56:35.283Z,96671.27
2022-12-24T04:59:06.488Z,96668.65
2022-12-24T05:01:36.035Z,96670.94
2022-12-24T05:04:07.975Z,96674.83
2022-12-24T05:06:39.192Z,96678.08
2022-12-24T05:09:10.235Z,96682.65
2022-12-24T05:11:41.275Z,96687.20
2022-12-24T05:14:12.415Z,96696.95
2022-12-24T05:16:44.064Z,96705.80
2022-12-24T05:19:15.668Z,96704.99
2022-12-24T05:22:06.790Z,96701.62
2022-12-24T05:24:55.400Z,96703.21
2022-12-24T05:27:27.191Z,96710.41
2022-12-24T05:29:58.314Z,96718.77
2022-12-24T05:32:30.104Z,96721.64
2022-12-24T05:35:01.136Z,96727.15
2022-12-24T05:37:32.892Z,96727.79
2022-12-24T05:40:04.424Z,96729.89
2022-12-24T05:42:35.636Z,96724.95
2022-12-24T05:45:07.984Z,96731.64
2022-12-24T05:47:43.236Z,96735.58
2022-12-24T05:50:14.911Z,96736.27
2022-12-24T05:52:44.179Z,96737.71
2022-12-24T05:55:15.299Z,96733.98
2022-12-24T05:57:46.141Z,96738.52
2022-12-24T06:00:16.207Z,96746.71
2022-12-24T06:02:47.331Z,96749.33
2022-12-24T06:05:18.616Z,96749.81
2022-12-24T06:07:49.664Z,96754.36
2022-12-24T06:10:20.956Z,96753.73
2022-12-24T06:12:52.020Z,96751.35
2022-12-24T06:15:24.130Z,96756.48
2022-12-24T06:17:55.482Z,96753.01
2022-12-24T06:20:26.695Z,96758.01
2022-12-24T06:22:56.213Z,96766.98
2022-12-24T06:25:27.588Z,96768.85
2022-12-24T06:27:58.585Z,96775.02
2022-12-24T06:30:30.559Z,96780.86
2022-12-24T06:33:01.721Z,96780.63
2022-12-24T06:35:32.159Z,96781.11
2022-12-24T06:38:03.310Z,96785.02
2022-12-24T06:40:32.779Z,96792.01
2022-12-24T06:43:04.227Z,96794.31
2022-12-24T06:45:35.217Z,96799.83
2022-12-24T06:48:04.772Z,96808.35
2022-12-24T06:50:36.400Z,96817.90
2022-12-24T06:53:07.606Z,96826.33
2022-12-24T06:55:38.955Z,96829.60
2022-12-24T06:58:09.935Z,96833.40
2022-12-24T07:00:41.121Z,96838.61
2022-12-24T07:03:12.886Z,96838.52
2022-12-24T07:05:44.982Z,96840.90
2022-12-24T07:08:16.300Z,96850.27
2022-12-24T07:10:54.040Z,96855.80
2022-12-24T07:13:25.604Z,96867.58
2022-12-24T07:16:01.824Z,96871.70
2022-12-24T07:18:33.218Z,96880.20
2022-12-24T07:21:06.337Z,96882.60
2022-12-24T07:23:37.753Z,96886.12
2022-12-24T07:26:09.151Z,96893.55
2022-12-24T07:28:40.156Z,96902.80
2022-12-24T07:31:14.557Z,96910.69
2022-12-24T07:33:45.895Z,96912.31
2022-12-24T07:36:21.853Z,96916.16
2022-12-24T07:38:52.946Z,96921.83
2022-12-24T07:41:24.446Z,96926.16
2022-12-24T07:43:55.597Z,96924.18
2022-12-24T07:46:25.085Z,96918.20
2022-12-24T07:48:55.993Z,96918.90
2022-12-24T07:51:27.138Z,96922.48
2022-12-24T07:53:58.357Z,96926.29
2022-12-24T07:56:27.802Z,96929.30
2022-12-24T07:58:58.849Z,96937.25
2022-12-24T08:01:29.979Z,96945.98
2022-12-24T08:04:01.571Z,96952.36
2022-12-24T08:06:32.841Z,96960.98
2022-12-24T08:09:04.069Z,96963.52
2022-12-24T08:11:35.267Z,96967.09
2022-12-24T08:14:06.203Z,96975.80
2022-12-24T08:16:35.915Z,96979.52
2022-12-24T08:19:07.331Z,96985.60
2022-12-24T08:21:38.692Z,96990.80
2022-12-24T08:24:10.079Z,96992.96
2022-12-24T08:26:41.329Z,96998.22
2022-12-24T08:29:12.800Z,96997.95
2022-12-24T08:31:44.444Z,97005.66
2022-12-24T08:34:15.720Z,97012.69
2022-12-24T08:36:46.976Z,97015.91
2022-12-24T08:39:18.191Z,97015.63
2022-12-24T08:41:49.053Z,97017.45
2022-12-24T08:44:20.287Z,97022.66
2022-12-24T08:46:51.480Z,97027.95
2022-12-24T08:49:22.448Z,97031.02
2022-12-24T08:51:53.633Z,97030.57
2022-12-24T08:54:25.334Z,97040.06
2022-12-24T08:56:56.613Z,97039.92
2022-12-24T08:59:27.935Z,97039.69
2022-12-24T09:01:58.933Z,97041.90
2022-12-24T09:04:30.032Z,97044.93
2022-12-24T09:07:01.236Z,97049.95
2022-12-24T09:09:37.725Z,97055.59
2022-12-24T09:12:11.391Z,97057.23
2022-12-24T09:14:42.376Z,97068.23
2022-12-24T09:17:13.643Z,97068.09
2022-12-24T09:19:44.825Z,97067.35
2022-12-24T09:22:14.330Z,97077.12
2022-12-24T09:24:45.455Z,97080.73
2022-12-24T09:27:16.592Z,97084.48
2022-12-24T09:29:47.859Z,97083.71
2022-12-24T09:32:17.425Z,97086.91
2022-12-24T09:34:48.471Z,97090.67
2022-12-24T09:37:17.866Z,97091.50
2022-12-24T09:39:49.032Z,97096.63
2022-12-24T09:42:29.794Z,97101.63
2022-12-24T09:45:06.886Z,97103.76
2022-12-24T09:47:39.853Z,97103.09
2022-12-24T09:50:27.738Z,97103.43
2022-12-24T09:53:02.644Z,97111.07
2022-12-24T09:55:38.379Z,97111.35
2022-12-24T09:58:16.721Z,97109.86
2022-12-24T10:00:50.297Z,97109.88
2022-12-24T10:03:21.753Z,97111.44
2022-12-24T10:06:04.154Z,97111.52
2022-12-24T10:08:45.217Z,97111.23
2022-12-24T10:11:24.995Z,97122.65
2022-12-24T10:14:12.009Z,97122.16
2022-12-24T10:16:57.538Z,97125.80
2022-12-24T10:19:38.772Z,97116.23
2022-12-24T10:22:21.708Z,97115.06
2022-12-24T10:25:24.746Z,97125.02
2022-12-24T10:27:59.657Z,97128.42
2022-12-24T10:30:31.139Z,97134.42
2022-12-24T10:33:02.473Z,97140.86
2022-12-24T10:35:41.038Z,97145.88
2022-12-24T10:38:12.486Z,97153.16
2022-12-24T10:40:47.007Z,97158.64
2022-12-24T10:43:20.268Z,97159.67
2022-12-24T10:45:54.948Z,97160.29
2022-12-24T10:48:30.556Z,97161.80
2022-12-24T10:51:07.893Z,97160.04
2022-12-24T10:53:45.236Z,97160.86
2022-12-24T10:56:19.908Z,97163.06
2022-12-24T10:58:55.455Z,97159.19
2022-12-24T11:01:46.450Z,97164.00
2022-12-24T11:04:21.772Z,97166.93
2022-12-24T11:06:58.288Z,97169.21
2022-12-24T11:09:31.651Z,97170.65
2022-12-24T11:12:08.951Z,97172.44
2022-12-24T11:14:41.931Z,97169.94
2022-12-24T11:17:22.574Z,97170.52
2022-12-24T11:19:53.849Z,97174.23
2022-12-24T11:22:27.667Z,97180.59
2022-12-24T11:25:07.510Z,97178.48
2022-12-24T11:27:47.403Z,97191.41
2022-12-24T11:30:29.206Z,97189.20
2022-12-24T11:33:24.176Z,97189.30
2022-12-24T11:36:03.587Z,97191.19
2022-12-24T11:38:36.115Z,97195.14
2022-12-24T11:41:13.019Z,97192.73
2022-12-24T11:43:49.867Z,97198.38
2022-12-24T11:46:38.690Z,97202.21
2022-12-24T11:49:30.511Z,97200.83
2022-12-24T11:52:30.929Z,97204.42
2022-12-24T11:55:16.543Z,97203.88
2022-12-24T11:57:54.946Z,97196.92
2022-12-24T12:00:26.594Z,97203.33
2022-12-24T12:03:02.409Z,97216.60
2022-12-24T12:05:36.824Z,97217.72
2022-12-24T12:08:17.423Z,97221.23
2022-12-24T12:10:51.119Z,97227.89
2022-12-24T12:13:33.672Z,97227.16
2022-12-24T12:16:20.639Z,97239.04
2022-12-24T12:18:58.312Z,97236.98
2022-12-24T12:21:36.241Z,97247.40
2022-12-24T12:24:17.653Z,97257.07
2022-12-24T12:26:55.035Z,97260.83
2022-12-24T12:29:26.845Z,97261.45
2022-12-24T12:32:03.441Z,97259.43
2022-12-24T12:34:40.543Z,97260.77
2022-12-24T12:37:16.208Z,97269.65
2022-12-24T12:39:47.745Z,97269.66
2022-12-24T12:42:28.340Z,97269.48
2022-12-24T12:45:31.801Z,97273.86
2022-12-24T12:48:22.876Z,97272.91
2022-12-24T12:50:59.684Z,97274.15
2022-12-24T12:53:49.520Z,97273.42
2022-12-24T12:56:31.610Z,97277.16
2022-12-24T12:59:10.196Z,97282.84
2022-12-24T13:01:48.901Z,97286.04
2022-12-24T13:04:50.230Z,97285.89
2022-12-24T13:07:49.687Z,97288.41
2022-12-24T13:10:50.329Z,97285.19
2022-12-24T13:13:54.206Z,97287.13
2022-12-24T13:16:48.671Z,97289.23
2022-12-24T13:19:37.670Z,97292.79
2022-12-24T13:22:18.374Z,97297.56
2022-12-24T13:24:55.039Z,97297.95
2022-12-24T13:27:30.530Z,97305.41
2022-12-24T13:30:09.607Z,97310.61
2022-12-24T13:32:51.004Z,97312.64
2022-12-24T13:35:37.826Z,97314.36
2022-12-24T13:38:35.040Z,97315.70
2022-12-24T13:41:46.454Z,97316.71
2022-12-24T13:44:23.001Z,97318.42
2022-12-24T13:46:59.083Z,97320.68
2022-12-24T13:49:34.248Z,97323.32
2022-12-24T13:52:22.686Z,97326.32
2022-12-24T13:55:17.671Z,97329.91
2022-12-24T13:57:57.921Z,97332.73
2022-12-24T14:00:33.829Z,97329.71
2022-12-24T14:03:18.747Z,97335.25
2022-12-24T14:05:53.403Z,97342.51
2022-12-24T14:08:33.802Z,97348.38
2022-12-24T14:11:12.573Z,97350.05
2022-12-24T14:14:10.598Z,97349.80
2022-12-24T14:16:52.974Z,97352.54
2022-12-24T14:19:33.706Z,97354.98
2022-12-24T14:22:24.494Z,97359.70
2022-12-24T14:24:58.888Z,97359.91
2022-12-24T14:27:34.132Z,97363.87
2022-12-24T14:30:09.923Z,97362.55
2022-12-24T14:32:42.348Z,97370.98
2022-12-24T14:35:19.690Z,97375.93
2022-12-24T14:37:53.452Z,97377.41
2022-12-24T14:40:30.267Z,97379.08
2022-12-24T14:43:10.749Z,97377.20
2022-12-24T14:45:48.039Z,97382.99
2022-12-24T14:48:31.745Z,97383.23
2022-12-24T14:51:12.063Z,97387.36
2022-12-24T14:54:04.276Z,97397.61
2022-12-24T14:56:35.969Z,97403.98
2022-12-24T14:59:19.583Z,97410.94
2022-12-24T15:01:49.239Z,97419.27
2022-12-24T15:04:20.938Z,97427.10
2022-12-24T15:06:57.699Z,97435.39
2022-12-24T15:09:34.010Z,97438.93
2022-12-24T15:12:06.705Z,97443.20
2022-12-24T15:14:43.938Z,97444.55
2022-12-24T15:17:16.479Z,97447.65
2022-12-24T15:19:52.665Z,97450.77
2022-12-24T15:22:29.289Z,97459.20
2022-12-24T15:25:00.502Z,97464.45
2022-12-24T15:27:34.183Z,97470.17
2022-12-24T15:30:15.115Z,97468.30
2022-12-24T15:32:47.002Z,97472.84
2022-12-24T15:35:52.462Z,97474.65
2022-12-24T15:38:32.456Z,97478.49
2022-12-24T15:41:06.864Z,97484.80
2022-12-24T15:43:42.744Z,97484.45
2022-12-24T15:46:21.114Z,97482.73
2022-12-24T15:48:53.801Z,97476.27
2022-12-24T15:51:27.989Z,97472.33
2022-12-24T15:54:02.658Z,97471.84
2022-12-24T15:56:44.425Z,97468.52
2022-12-24T15:59:31.224Z,97466.69
2022-12-24T16:02:33.167Z,97466.77
2022-12-24T16:05:32.259Z,97471.56
2022-12-24T16:08:27.112Z,97478.83
2022-12-24T16:11:17.599Z,97483.98
2022-12-24T16:14:02.158Z,97480.48
2022-12-24T16:16:39.860Z,97479.30
2022-12-24T16:19:22.745Z,97479.27
2022-12-24T16:21:56.876Z,97484.45
2022-12-24T16:24:30.669Z,97493.66
2022-12-24T16:27:01.720Z,97498.31
2022-12-24T16:29:32.591Z,97496.28
2022-12-24T16:32:03.866Z,97498.77
2022-12-24T16:34:35.022Z,97500.69
2022-12-24T16:37:06.235Z,97505.02
2022-12-24T16:39:37.641Z,97516.34
2022-12-24T16:42:26.490Z,97524.45
2022-12-24T16:44:57.480Z,97523.86
2022-12-24T16:47:27.350Z,97530.05
2022-12-24T16:49:59.120Z,97528.58
2022-12-24T16:52:33.701Z,97526.36
2022-12-24T16:55:05.467Z,97530.87
2022-12-24T16:57:37.096Z,97530.83
2022-12-24T17:00:11.166Z,97531.55
2022-12-24T17:02:42.490Z,97536.25
2022-12-24T17:05:14.551Z,97535.29
2022-12-24T17:07:45.711Z,97537.51
2022-12-24T17:10:16.684Z,97545.86
2022-12-24T17:12:47.949Z,97548.07
2022-12-24T17:15:19.872Z,97550.08
2022-12-24T17:17:50.800Z,97548.61
2022-12-24T17:20:24.035Z,97546.89
2022-12-24T17:22:55.741Z,97552.46
2022-12-24T17:25:25.243Z,97550.08
2022-12-24T17:27:56.255Z,97551.50
2022-12-24T17:30:27.280Z,97550.95
2022-12-24T17:32:56.872Z,97556.62
2022-12-24T17:35:28.052Z,97554.16
2022-12-24T17:37:59.025Z,97561.64
2022-12-24T17:40:28.550Z,97562.11
2022-12-24T17:42:59.653Z,97559.98
2022-12-24T17:45:29.143Z,97563.06
2022-12-24T17:48:00.230Z,97560.98
2022-12-24T17:50:31.501Z,97558.11
2022-12-24T17:53:02.643Z,97561.33
2022-12-24T17:55:32.118Z,97557.46
2022-12-24T17:58:03.225Z,97560.64
2022-12-24T18:00:33.455Z,97568.41
2022-12-24T18:03:04.964Z,97575.89
2022-12-24T18:05:36.390Z,97580.89
2022-12-24T18:08:10.408Z,97579.10
2022-12-24T18:10:39.754Z,97582.45
2022-12-24T18:13:15.625Z,97580.49
2022-12-24T18:15:50.481Z,97582.36
2022-12-24T18:18:37.437Z,97587.27
2022-12-24T18:21:10.561Z,97589.77
2022-12-24T18:23:44.750Z,97597.48
2022-12-24T18:26:17.521Z,97606.25
2022-12-24T18:28:48.913Z,97608.66
2022-12-24T18:31:21.785Z,97610.05
2022-12-24T18:33:54.093Z,97608.59
2022-12-24T18:36:25.212Z,97612.79
2022-12-24T18:38:56.447Z,97615.30
2022-12-24T18:41:29.161Z,97622.52
2022-12-24T18:44:00.691Z,97627.27
2022-12-24T18:46:33.842Z,97632.86
2022-12-24T18:49:04.972Z,97629.55
2022-12-24T18:51:37.243Z,97630.22
2022-12-24T18:54:08.687Z,97631.03
2022-12-24T18:56:40.827Z,97636.16
2022-12-24T18:59:13.164Z,97641.26
2022-12-24T19:01:45.211Z,97652.14
2022-12-24T19:04:16.882Z,97651.02
2022-12-24T19:06:53.052Z,97654.89
2022-12-24T19:09:24.803Z,97655.34
2022-12-24T19:11:55.878Z,97655.95
2022-12-24T19:14:27.289Z,97655.45
2022-12-24T19:16:58.554Z,97657.13
2022-12-24T19:19:29.599Z,97657.84
2022-12-24T19:22:00.789Z,97653.82
2022-12-24T19:24:32.338Z,97658.89
2022-12-24T19:27:03.483Z,97661.74
2022-12-24T19:29:34.451Z,97659.76
2022-12-24T19:32:05.549Z,97665.05
2022-12-24T19:34:36.704Z,97662.19
2022-12-24T19:37:08.272Z,97666.16
2022-12-24T19:39:39.877Z,97666.36
2022-12-24T19:42:10.948Z,97667.42
2022-12-24T19:44:42.076Z,97671.13
2022-12-24T19:47:13.111Z,97669.94
2022-12-24T19:49:44.171Z,97676.63
2022-12-24T19:52:15.105Z,97681.34
2022-12-24T19:54:47.654Z,97689.76
2022-12-24T19:57:17.675Z,97692.88
2022-12-24T19:59:48.811Z,97698.98
2022-12-24T20:02:20.143Z,97700.05
2022-12-24T20:04:52.792Z,97702.57
2022-12-24T20:07:23.788Z,97703.55
2022-12-24T20:09:54.784Z,97706.19
2022-12-24T20:12:25.955Z,97718.23
2022-12-24T20:14:57.704Z,97720.77
2022-12-24T20:17:28.604Z,97721.35
2022-12-24T20:19:59.611Z,97723.27
2022-12-24T20:22:30.653Z,97723.82
2022-12-24T20:25:01.620Z,97723.46
2022-12-24T20:27:32.684Z,97720.46
2022-12-24T20:30:03.842Z,97722.20
2022-12-24T20:32:35.104Z,97723.08
2022-12-24T20:35:06.840Z,97719.02
2022-12-24T20:37:43.739Z,97722.39
2022-12-24T20:40:17.107Z,97720.30
2022-12-24T20:42:48.435Z,97721.30
2022-12-24T20:45:19.802Z,97718.36
2022-12-24T20:47:50.937Z,97728.34
2022-12-24T20:50:25.242Z,97725.94
2022-12-24T20:52:56.702Z,97725.07
2022-12-24T20:55:27.947Z,97721.85
2022-12-24T20:58:00.247Z,97720.86
2022-12-24T21:00:31.866Z,97723.77
2022-12-24T21:03:03.071Z,97731.92
2022-12-24T21:05:34.852Z,97739.45
2022-12-24T21:08:06.085Z,97737.91
2022-12-24T21:10:37.881Z,97739.59
2022-12-24T21:13:09.758Z,97740.95
2022-12-24T21:15:41.999Z,97735.02
2022-12-24T21:18:13.230Z,97731.44
2022-12-24T21:20:44.403Z,97736.71
2022-12-24T21:23:15.409Z,97743.42
2022-12-24T21:25:46.608Z,97743.20
2022-12-24T21:28:17.865Z,97748.05
2022-12-24T21:30:49.385Z,97758.13
2022-12-24T21:33:21.031Z,97761.11
2022-12-24T21:35:57.843Z,97761.02
2022-12-24T21:38:28.955Z,97760.45
2022-12-24T21:41:05.513Z,97759.73
2022-12-24T21:43:37.744Z,97758.11
2022-12-24T21:46:11.740Z,97763.85
2022-12-24T21:49:00.695Z,97765.21
2022-12-24T21:51:32.388Z,97767.26
2022-12-24T21:54:20.694Z,97761.53
2022-12-24T21:57:09.965Z,97756.38
2022-12-24T21:59:41.569Z,97760.47
2022-12-24T22:02:14.963Z,97767.26
2022-12-24T22:04:46.595Z,97772.88
2022-12-24T22:07:58.688Z,97774.69
2022-12-24T22:10:47.234Z,97777.05
2022-12-24T22:13:18.690Z,97780.55
2022-12-24T22:15:49.226Z,97780.35
2022-12-24T22:18:22.261Z,97780.11
2022-12-24T22:20:53.798Z,97785.45
2022-12-24T22:23:24.791Z,97780.42
2022-12-24T22:25:55.758Z,97790.16
2022-12-24T22:28:26.770Z,97789.98
2022-12-24T22:30:57.709Z,97786.44
2022-12-24T22:33:30.689Z,97786.88
2022-12-24T22:36:04.819Z,97789.29
2022-12-24T22:38:35.931Z,97786.75
2022-12-24T22:41:12.442Z,97788.66
2022-12-24T22:43:43.878Z,97786.77
2022-12-24T22:46:16.170Z,97790.17
2022-12-24T22:48:48.389Z,97790.52
2022-12-24T22:51:21.614Z,97794.42
2022-12-24T22:53:52.935Z,97791.86
2022-12-24T22:56:25.382Z,97794.17
2022-12-24T22:58:58.625Z,97801.00
2022-12-24T23:01:37.693Z,97802.89
2022-12-24T23:04:10.069Z,97805.48
2022-12-24T23:06:41.924Z,97808.43
2022-12-24T23:09:16.010Z,97817.99
2022-12-24T23:11:47.996Z,97811.34
2022-12-24T23:14:39.763Z,97812.04
2022-12-24T23:17:11.249Z,97825.27
2022-12-24T23:19:40.649Z,97837.86
2022-12-24T23:22:13.569Z,97846.55
2022-12-24T23:24:44.862Z,97853.92
2022-12-24T23:27:15.855Z,97854.83
2022-12-24T23:29:46.790Z,97856.02
2022-12-24T23:32:16.561Z,97850.02
2022-12-24T23:34:48.138Z,97846.50
2022-12-24T23:37:19.101Z,97846.06
2022-12-24T23:39:50.431Z,97853.59
2022-12-24T23:42:21.749Z,97861.65
2022-12-24T23:44:52.407Z,97873.46
2022-12-24T23:47:23.579Z,97876.35
2022-12-24T23:49:54.676Z,97877.67
2022-12-24T23:52:25.707Z,97870.68
2022-12-24T23:54:55.320Z,97862.61
2022-12-24T23:57:26.542Z,97856.61
2022-12-24T23:59:56.192Z,97861.11
